FW8317 Weather Reports


Display with metric or nautical units.
time (UTC)temp
F
wind
direction
speed
MPH
gust
MPH
rain 1hr
in
rain 24hr
in
rain mn
in
humidity
%
barometer
mb
20210419020543 56 14 3.0 7.0 0.00 0.00 0.00 37 1022.7
20210419020248 56 269 3.0 8.0 0.00 0.00 0.00 38 1022.7
20210419015812 56 240 4.0 9.0 0.00 0.00 0.00 37 1022.8
20210419015137 56 286 7.0 9.0 0.00 0.00 0.00 37 1022.8
20210419014636 57 291 2.0 6.0 0.00 0.00 0.00 37 1022.9
20210419014106 57 294 1.0 8.0 0.00 0.00 0.00 36 1022.8
20210419013548 56 321 3.0 8.0 0.00 0.00 0.00 38 1022.9
20210419013104 56 237 3.0 7.0 0.00 0.00 0.00 38 1022.9
20210419012813 56 262 4.0 7.0 0.00 0.00 0.00 38 1022.9
20210419012326 56 334 1.0 7.0 0.00 0.00 0.00 39 1022.9
20210419011746 54 0 1.0 7.0 0.00 0.00 0.00 41 1022.9
20210419011044 54 291 2.0 5.0 0.00 0.00 0.00 39 1023.1
20210419010545 54 95 1.0 5.0 0.00 0.00 0.00 40 1023.1
20210419010300 54 296 1.0 5.0 0.00 0.00 0.00 41 1023.2
20210419005830 53 263 2.0 8.0 0.00 0.00 0.00 41 1023.2
20210419005328 53 304 2.0 9.0 0.00 0.00 0.00 41 1023.2
20210419004825 54 294 5.0 9.0 0.00 0.00 0.00 41 1023.3
20210419004044 56 275 0.0 4.0 0.00 0.00 0.00 39 1023.2
20210419003546 56 322 0.0 3.0 0.00 0.00 0.00 39 1023.2
20210419003242 55 322 0.0 4.0 0.00 0.00 0.00 40 1023.4
20210419003022 55 59 1.0 4.0 0.00 0.00 0.00 41 1023.5
20210419002537 54 352 1.0 3.0 0.00 0.00 0.00 41 1023.6
20210419001716 54 256 0.0 5.0 0.00 0.00 0.00 40 1023.5
20210419001123 53 0 2.0 5.0 0.00 0.00 0.00 41 1023.5
20210419000555 53 290 1.0 3.0 0.00 0.00 0.00 40 1023.6
20210419000130 53 261 0.0 6.0 0.00 0.00 0.00 42 1023.6
20210418235758 53 261 1.0 6.0 0.00 0.00 0.00 40 1023.7
20210418235340 54 277 3.0 6.0 0.00 0.00 0.00 41 1023.7
20210418234718 55 257 2.0 3.0 0.00 0.00 0.00 39 1023.6
20210418234048 56 125 0.0 2.0 0.00 0.00 0.00 38 1023.6
20210418233543 55 326 0.0 2.0 0.00 0.00 0.00 39 1023.7
20210418233300 55 0 0.0 2.0 0.00 0.00 0.00 40 1023.7
20210418233033 55 326 0.0 4.0 0.00 0.00 0.00 39 1023.8
20210418232730 54 326 1.0 7.0 0.00 0.00 0.00 40 1023.7
20210418231640 53 0 2.0 7.0 0.00 0.00 0.00 41 1023.8
20210418231109 55 263 5.0 7.0 0.00 0.00 0.00 39 1023.8
20210418230545 58 329 2.0 4.0 0.00 0.00 0.00 34 1023.9
20210418230118 56 19 2.0 4.0 0.00 0.00 0.00 35 1023.8
20210418225852 56 340 2.0 4.0 0.00 0.00 0.00 37 1023.8
20210418225457 55 325 2.0 5.0 0.00 0.00 0.00 38 1023.8
20210418224632 53 319 1.0 9.0 0.00 0.00 0.00 42 1024.0
20210418224053 53 315 3.0 9.0 0.00 0.00 0.00 41 1024.0
20210418223545 56 257 1.0 4.0 0.00 0.00 0.00 36 1023.9
20210418223259 55 0 1.0 4.0 0.00 0.00 0.00 38 1023.9
20210418222907 54 55 0.0 8.0 0.00 0.00 0.00 40 1024.0
20210418222417 52 36 1.0 8.0 0.00 0.00 0.00 42 1024.0
20210418221731 52 277 5.0 9.0 0.00 0.00 0.00 42 1024.1
20210418221048 54 260 5.0 9.0 0.00 0.00 0.00 40 1024.1
20210418220545 58 352 0.0 5.0 0.00 0.00 0.00 35 1024.2
20210418220223 57 352 0.0 7.0 0.00 0.00 0.00 35 1024.1
20210418215838 56 352 2.0 8.0 0.00 0.00 0.00 36 1024.0
20210418215456 55 313 3.0 8.0 0.00 0.00 0.00 37 1024.2
20210418214627 55 277 2.0 6.0 0.00 0.00 0.00 36 1024.2
20210418214051 56 268 1.0 4.0 0.00 0.00 0.00 36 1024.0
20210418213601 54 0 2.0 4.0 0.00 0.00 0.00 38 1024.1
20210418213106 54 257 2.0 4.0 0.00 0.00 0.00 37 1024.2
20210418212854 55 254 2.0 4.0 0.00 0.00 0.00 37 1024.2
20210418212438 55 254 1.0 4.0 0.00 0.00 0.00 36 1024.2
20210418211626 55 294 1.0 4.0 0.00 0.00 0.00 36 1024.1
20210418211046 55 0 1.0 3.0 0.00 0.00 0.00 36 1024.3
20210418210615 55 0 1.0 3.0 0.00 0.00 0.00 38 1024.3
20210418210123 54 0 0.0 3.0 0.00 0.00 0.00 39 1024.4
20210418205930 53 286 1.0 3.0 0.00 0.00 0.00 39 1024.5
20210418205534 53 286 2.0 3.0 0.00 0.00 0.00 40 1024.3
20210418204634 52 242 2.0 3.0 0.00 0.00 0.00 41 1024.3
20210418204054 52 256 0.0 4.0 0.00 0.00 0.00 41 1024.4
20210418203549 51 0 1.0 4.0 0.00 0.00 0.00 44 1024.3
20210418203212 52 0 1.0 3.0 0.00 0.00 0.00 43 1024.4
20210418202853 52 269 1.0 4.0 0.00 0.00 0.00 42 1024.4
20210418202526 52 273 1.0 4.0 0.00 0.00 0.00 40 1024.4
20210418201627 50 271 1.0 8.0 0.00 0.00 0.00 43 1024.4
20210418201056 51 270 4.0 8.0 0.00 0.00 0.00 44 1024.5
20210418200550 52 171 2.0 7.0 0.00 0.00 0.00 40 1024.4
20210418200147 51 323 2.0 6.0 0.00 0.00 0.00 45 1024.5
20210418195838 53 236 2.0 8.0 0.00 0.00 0.00 41 1024.4
20210418195329 53 141 4.0 8.0 0.00 0.00 0.00 38 1024.5
20210418194609 53 165 1.0 9.0 0.00 0.00 0.00 40 1024.5
20210418194047 53 139 5.0 9.0 0.00 0.00 0.00 40 1024.4
20210418193551 54 169 3.0 8.0 0.00 0.00 0.00 40 1024.3
20210418193149 54 121 4.0 8.0 0.00 0.00 0.00 40 1024.3
20210418192936 52 284 3.0 6.0 0.00 0.00 0.00 42 1024.2
20210418192623 53 235 0.0 5.0 0.00 0.00 0.00 41 1024.1
20210418191655 52 0 0.0 6.0 0.00 0.00 0.00 44 1024.1
20210418191105 52 313 3.0 6.0 0.00 0.00 0.00 43 1024.2
20210418190550 52 282 1.0 3.0 0.00 0.00 0.00 43 1024.1
20210418190115 54 300 1.0 3.0 0.00 0.00 0.00 41 1024.1
20210418185743 53 330 2.0 5.0 0.00 0.00 0.00 41 1024.1
20210418185234 52 279 3.0 5.0 0.00 0.00 0.00 43 1024.1
20210418184647 50 311 2.0 6.0 0.00 0.00 0.00 47 1024.2
20210418184051 49 288 2.0 6.0 0.00 0.00 0.00 47 1024.3
20210418183551 51 240 2.0 5.0 0.00 0.00 0.00 44 1024.3
20210418183132 51 0 2.0 4.0 0.00 0.00 0.00 38 1024.1
20210418182814 48 0 0.0 5.0 0.00 0.00 0.00 48 1024.2
20210418182246 47 241 0.0 5.0 0.00 0.00 0.00 51 1024.3
20210418181633 48 241 0.0 4.0 0.00 0.00 0.00 48 1024.3
20210418181058 50 229 1.0 5.0 0.00 0.00 0.00 46 1024.3
20210418180543 53 5 3.0 7.0 0.00 0.00 0.00 36 1024.2
20210418180124 53 20 4.0 7.0 0.00 0.00 0.00 36 1024.2
20210418175821 52 5 4.0 6.0 0.00 0.00 0.00 38 1024.1
20210418175233 51 51 3.0 6.0 0.00 0.00 0.00 40 1024.2
20210418174632 51 335 2.0 6.0 0.00 0.00 0.00 42 1024.2
20210418174042 50 333 3.0 6.0 0.00 0.00 0.00 44 1024.1
20210418173543 51 19 3.0 5.0 0.00 0.00 0.00 41 1024.1
20210418173144 50 39 2.0 4.0 0.00 0.00 0.00 41 1024.1
20210418172925 49 29 3.0 4.0 0.00 0.00 0.00 46 1024.0
20210418172521 49 342 1.0 7.0 0.00 0.00 0.00 46 1024.1
20210418171621 49 5 4.0 8.0 0.00 0.00 0.00 46 1024.1
20210418171042 50 23 4.0 8.0 0.00 0.00 0.00 42 1024.1
20210418170542 50 65 4.0 8.0 0.00 0.00 0.00 41 1024.1
20210418170219 49 37 3.0 5.0 0.00 0.00 0.00 41 1024.2
20210418165748 49 52 3.0 6.0 0.00 0.00 0.00 45 1024.2
20210418165154 49 22 4.0 6.0 0.00 0.00 0.00 45 1024.3
20210418164633 48 5 3.0 5.0 0.00 0.00 0.00 44 1024.3
20210418164127 48 244 2.0 7.0 0.00 0.00 0.00 45 1024.3
20210418163553 49 216 1.0 7.0 0.00 0.00 0.00 45 1024.3
20210418163258 49 244 2.0 9.0 0.00 0.00 0.00 46 1024.1
20210418163025 49 72 4.0 9.0 0.00 0.00 0.00 44 1024.1
20210418162650 48 55 4.0 9.0 0.00 0.00 0.00 47 1024.2
20210418161907 47 51 2.0 7.0 0.00 0.00 0.00 48 1024.1
20210418161044 48 59 2.0 7.0 0.00 0.00 0.00 47 1024.2
20210418160543 48 42 3.0 6.0 0.00 0.00 0.00 45 1024.0
20210418160141 48 46 4.0 6.0 0.00 0.00 0.00 44 1024.1
20210418155818 47 61 4.0 6.0 0.00 0.00 0.00 45 1024.1
20210418155230 47 34 2.0 5.0 0.00 0.00 0.00 46 1024.1
20210418154557 46 168 1.0 7.0 0.00 0.00 0.00 48 1024.3
20210418154052 46 213 1.0 9.0 0.00 0.00 0.00 47 1024.3
20210418153545 49 253 5.0 13.0 0.00 0.00 0.00 43 1024.1
20210418153154 53 101 5.0 13.0 0.00 0.00 0.00 43 1024.1
20210418152727 51 99 7.0 12.0 0.00 0.00 0.00 45 1023.9
20210418152241 50 55 7.0 10.0 0.00 0.00 0.00 46 1023.9
20210418151613 49 66 5.0 9.0 0.00 0.00 0.00 44 1023.9
20210418151051 47 51 5.0 8.0 0.00 0.00 0.00 46 1023.9
20210418150545 47 5 4.0 7.0 0.00 0.00 0.00 47 1024.0
20210418150118 46 360 3.0 7.0 0.00 0.00 0.00 47 1024.1
20210418145819 47 281 2.0 7.0 0.00 0.00 0.00 46 1024.2
20210418145342 48 292 2.0 8.0 0.00 0.00 0.00 45 1024.1
20210418144658 48 241 1.0 8.0 0.00 0.00 0.00 45 1024.0
20210418144055 47 67 3.0 5.0 0.00 0.00 0.00 49 1024.0
20210418143630 47 82 2.0 6.0 0.00 0.00 0.00 50 1023.9
20210418143130 47 341 2.0 6.0 0.00 0.00 0.00 49 1023.9
20210418142835 47 317 2.0 4.0 0.00 0.00 0.00 51 1023.8
20210418142426 47 299 1.0 3.0 0.00 0.00 0.00 50 1023.9
20210418141824 47 183 1.0 5.0 0.00 0.00 0.00 49 1023.9
20210418141044 47 76 4.0 5.0 0.00 0.00 0.00 48 1023.9
20210418140542 47 40 4.0 8.0 0.00 0.00 0.00 49 1024.0
20210418140142 47 73 5.0 8.0 0.00 0.00 0.00 47 1024.0
20210418135903 47 60 5.0 7.0 0.00 0.00 0.00 49 1024.0
20210418135444 47 49 4.0 6.0 0.00 0.00 0.00 50 1024.1
20210418134619 47 34 2.0 5.0 0.00 0.00 0.00 47 1024.2
20210418134055 47 360 2.0 5.0 0.00 0.00 0.00 45 1024.2
20210418133622 47 330 2.0 7.0 0.00 0.00 0.00 44 1024.2
20210418133132 46 332 2.0 7.0 0.00 0.00 0.00 49 1024.1
20210418132743 46 78 2.0 5.0 0.00 0.00 0.00 48 1024.2
20210418132200 45 24 3.0 8.0 0.00 0.00 0.00 53 1024.3
20210418131555 46 49 5.0 9.0 0.00 0.00 0.00 51 1024.2
20210418131119 45 70 5.0 9.0 0.00 0.00 0.00 51 1024.2
20210418130542 45 42 4.0 7.0 0.00 0.00 0.00 50 1024.3
20210418130313 45 27 1.0 4.0 0.00 0.00 0.00 50 1024.3
20210418130100 46 27 1.0 4.0 0.00 0.00 0.00 50 1024.4
20210418125826 46 76 1.0 4.0 0.00 0.00 0.00 49 1024.4
20210418124751 47 40 1.0 4.0 0.00 0.00 0.00 45 1024.3
20210418124148 47 338 1.0 5.0 0.00 0.00 0.00 44 1024.3
20210418123921 46 29 3.0 8.0 0.00 0.00 0.00 45 1024.3
20210418123640 46 36 4.0 8.0 0.00 0.00 0.00 43 1024.3
20210418123214 45 334 4.0 8.0 0.00 0.00 0.00 50 1024.4
20210418122553 46 5 4.0 7.0 0.00 0.00 0.00 51 1024.3
20210418121640 45 349 3.0 8.0 0.00 0.00 0.00 45 1024.3
20210418121141 46 64 3.0 8.0 0.00 0.00 0.00 46 1024.3
20210418120652 46 19 4.0 7.0 0.00 0.00 0.00 45 1024.3
20210418120333 47 36 2.0 7.0 0.00 0.00 0.00 41 1024.4
20210418115938 47 80 2.0 10.0 0.00 0.00 0.00 42 1024.4
20210418115550 48 30 4.0 10.0 0.00 0.00 0.00 39 1024.5
20210418114552 48 38 3.0 10.0 0.00 0.00 0.00 39 1024.5
20210418114103 47 91 3.0 10.0 0.00 0.00 0.00 37 1024.7
20210418113544 47 42 3.0 9.0 0.00 0.00 0.00 41 1024.7
20210418113140 46 61 2.0 6.0 0.00 0.00 0.00 39 1024.7
20210418112944 46 53 1.0 7.0 0.00 0.00 0.00 41 1024.6
20210418112424 45 80 4.0 7.0 0.00 0.00 0.00 42 1024.6
20210418111611 45 78 1.0 7.0 0.00 0.00 0.00 44 1024.6
20210418111105 46 109 2.0 7.0 0.00 0.00 0.00 40 1024.5
20210418110550 46 57 3.0 5.0 0.00 0.00 0.00 43 1024.6
20210418110148 45 77 1.0 6.0 0.00 0.00 0.00 40 1024.6
20210418105932 46 54 1.0 7.0 0.00 0.00 0.00 42 1024.7
20210418105431 45 55 3.0 7.0 0.00 0.00 0.00 43 1024.7
20210418104627 45 26 2.0 6.0 0.00 0.00 0.00 45 1024.6
20210418104102 45 49 3.0 7.0 0.00 0.00 0.00 44 1024.7
20210418103626 45 66 4.0 9.0 0.00 0.00 0.00 43 1024.6
20210418103144 44 46 4.0 9.0 0.00 0.00 0.00 43 1024.6
20210418102905 44 37 5.0 7.0 0.00 0.00 0.00 44 1024.6
20210418102435 43 22 4.0 5.0 0.00 0.00 0.00 46 1024.6
20210418101607 43 23 1.0 7.0 0.00 0.00 0.00 47 1024.7
20210418101058 42 17 1.0 7.0 0.00 0.00 0.00 49 1024.7
20210418100546 43 45 4.0 7.0 0.00 0.00 0.00 48 1024.8
20210418100221 43 43 5.0 7.0 0.00 0.00 0.00 48 1024.7
20210418095938 43 11 3.0 7.0 0.00 0.00 0.00 47 1024.7
20210418095641 43 53 5.0 7.0 0.00 0.00 0.00 45 1024.8
20210418094628 44 50 4.0 11.0 0.00 0.00 0.00 45 1024.8
20210418094054 44 38 7.0 11.0 0.00 0.00 0.00 44 1024.8
20210418093551 44 30 9.0 10.0 0.00 0.00 0.00 47 1024.8
20210418093139 44 35 7.0 9.0 0.00 0.00 0.00 45 1024.8
20210418092800 44 40 5.0 9.0 0.00 0.00 0.00 45 1024.9
20210418092354 44 55 6.0 9.0 0.00 0.00 0.00 45 1024.8
20210418091622 43 5 6.0 8.0 0.00 0.00 0.00 45 1024.8
20210418091046 43 18 5.0 8.0 0.00 0.00 0.00 48 1025.0
20210418090546 44 42 3.0 6.0 0.00 0.00 0.00 46 1025.1
20210418090220 45 66 3.0 6.0 0.00 0.00 0.00 43 1025.0
20210418085921 44 50 3.0 9.0 0.00 0.00 0.00 46 1025.0
20210418085319 43 54 6.0 9.0 0.00 0.00 0.00 46 1025.1
20210418084638 43 46 4.0 6.0 0.00 0.00 0.00 48 1025.0
20210418084049 42 41 3.0 5.0 0.00 0.00 0.00 50 1025.1
20210418083545 43 44 3.0 5.0 0.00 0.00 0.00 49 1025.0
20210418083147 43 49 1.0 4.0 0.00 0.00 0.00 49 1024.8
20210418082820 42 50 1.0 6.0 0.00 0.00 0.00 50 1025.0
20210418082141 43 71 3.0 11.0 0.00 0.00 0.00 50 1024.8
20210418081916 42 67 8.0 11.0 0.00 0.00 0.00 49 1024.9
20210418081100 42 44 4.0 9.0 0.00 0.00 0.00 50 1024.9
20210418080547 42 40 2.0 7.0 0.00 0.00 0.00 50 1024.9
20210418080222 42 38 4.0 10.0 0.00 0.00 0.00 50 1024.9
20210418080053 42 48 8.0 11.0 0.00 0.00 0.00 51 1024.8
20210418075428 42 34 9.0 11.0 0.00 0.00 0.00 51 1024.8
20210418074621 42 31 5.0 9.0 0.00 0.00 0.00 53 1024.9
20210418074041 42 35 5.0 9.0 0.00 0.00 0.00 51 1024.9
20210418073600 42 40 4.0 7.0 0.00 0.00 0.00 50 1024.8
20210418073125 42 46 3.0 7.0 0.00 0.00 0.00 51 1024.9
20210418072728 42 53 5.0 7.0 0.00 0.00 0.00 51 1024.9
20210418072231 42 44 2.0 10.0 0.00 0.00 0.00 52 1024.8
20210418071658 41 47 7.0 10.0 0.00 0.00 0.00 53 1024.9
20210418071058 41 61 2.0 5.0 0.00 0.00 0.00 52 1025.0
20210418070549 42 66 3.0 7.0 0.00 0.00 0.00 53 1024.9
20210418070129 41 66 4.0 9.0 0.00 0.00 0.00 51 1024.9
20210418065817 41 51 6.0 9.0 0.00 0.00 0.00 53 1025.0
20210418065358 41 61 3.0 7.0 0.00 0.00 0.00 54 1025.0
20210418064707 41 48 3.0 9.0 0.00 0.00 0.00 54 1025.0
20210418064100 41 55 7.0 9.0 0.00 0.00 0.00 53 1024.8
20210418063551 41 44 7.0 9.0 0.00 0.00 0.00 54 1025.0
20210418063230 41 56 4.0 9.0 0.00 0.00 0.00 53 1025.0
20210418062749 41 55 5.0 9.0 0.00 0.00 0.00 54 1025.0
20210418062301 41 42 7.0 9.0 0.00 0.00 0.00 54 1025.0
20210418061652 41 42 7.0 9.0 0.00 0.00 0.00 53 1025.1
20210418061051 42 44 5.0 7.0 0.00 0.00 0.00 53 1025.2
20210418060544 42 59 4.0 7.0 0.00 0.00 0.00 51 1025.2
20210418060225 42 44 5.0 7.0 0.00 0.00 0.00 52 1025.1
20210418055923 42 46 6.0 7.0 0.00 0.00 0.00 52 1025.1
20210418055432 42 53 5.0 9.0 0.00 0.00 0.00 51 1025.2
20210418054623 43 37 6.0 9.0 0.00 0.00 0.00 51 1025.1
20210418054045 44 46 4.0 6.0 0.00 0.00 0.00 49 1025.1
20210418053552 44 56 4.0 7.0 0.00 0.00 0.00 47 1025.1
20210418053220 45 59 5.0 7.0 0.00 0.00 0.00 47 1025.2
20210418052904 46 53 4.0 8.0 0.00 0.00 0.00 45 1025.0
20210418052524 47 67 4.0 9.0 0.00 0.00 0.00 44 1025.1
20210418051634 47 75 4.0 9.0 0.00 0.00 0.00 43 1025.2
20210418051047 47 67 6.0 9.0 0.00 0.00 0.00 43 1025.2
20210418050550 47 68 4.0 7.0 0.00 0.00 0.00 43 1025.2
20210418050143 48 44 5.0 7.0 0.00 0.00 0.00 43 1025.3
20210418045842 48 27 4.0 7.0 0.00 0.00 0.00 43 1025.3
20210418045255 49 343 2.0 5.0 0.00 0.00 0.00 41 1025.2
20210418044749 50 345 3.0 5.0 0.00 0.00 0.00 40 1025.3
20210418044046 50 329 1.0 4.0 0.00 0.00 0.00 39 1025.3
20210418043617 50 328 2.0 4.0 0.00 0.00 0.00 38 1025.3
20210418043221 50 329 1.0 4.0 0.00 0.00 0.00 38 1025.3
20210418042851 50 329 2.0 4.0 0.00 0.00 0.00 38 1025.3
20210418042527 50 298 1.0 3.0 0.00 0.00 0.00 39 1025.3
20210418041723 50 0 0.0 3.0 0.00 0.00 0.00 38 1025.3
20210418041048 50 298 1.0 3.0 0.00 0.00 0.00 39 1025.3
20210418040551 50 261 1.0 3.0 0.00 0.00 0.00 38 1025.3
20210418040226 50 247 2.0 3.0 0.00 0.00 0.00 39 1025.2
20210418035828 50 247 1.0 3.0 0.00 0.00 0.00 39 1025.3
20210418035344 50 247 1.0 3.0 0.00 0.00 0.00 39 1025.3
20210418034615 50 247 2.0 5.0 0.00 0.00 0.00 39 1025.3
20210418034101 50 247 2.0 5.0 0.00 0.00 0.00 39 1025.3
20210418033545 50 249 3.0 6.0 0.00 0.00 0.00 39 1025.3
20210418033126 50 270 2.0 7.0 0.00 0.00 0.00 37 1025.3
20210418032923 50 0 2.0 8.0 0.00 0.00 0.00 36 1025.2
20210418032556 50 286 5.0 9.0 0.00 0.00 0.00 35 1025.3
20210418031644 51 344 3.0 10.0 0.00 0.00 0.00 35 1025.3
20210418031047 51 321 6.0 10.0 0.00 0.00 0.00 36 1025.4
20210418030546 51 266 5.0 8.0 0.00 0.00 0.00 36 1025.3
20210418030315 51 277 3.0 7.0 0.00 0.00 0.00 36 1025.3
20210418025943 51 136 3.0 8.0 0.00 0.00 0.00 35 1025.5
20210418025455 51 298 3.0 8.0 0.00 0.00 0.00 35 1025.5
20210418024641 51 298 3.0 8.0 0.00 0.00 0.00 36 1025.5
20210418024051 51 296 3.0 7.0 0.00 0.00 0.00 35 1025.5
20210418023555 51 277 2.0 6.0 0.00 0.00 0.00 35 1025.5
20210418023055 51 255 1.0 6.0 0.00 0.00 0.00 36 1025.6
20210418022809 51 273 1.0 7.0 0.00 0.00 0.00 36 1025.6
20210418022134 51 250 4.0 7.0 0.00 0.00 0.00 36 1025.6
20210418021611 51 272 3.0 8.0 0.00 0.00 0.00 36 1025.5
20210418021055 50 273 4.0 8.0 0.00 0.00 0.00 36 1025.6